sensor_id;sensor_type;location;lat;lon;timestamp;pressure;altitude;pressure_sealevel;temperature;humidity
36242;BME280;22283;42.748;12.732;2022-11-03T00:01:42;98792.34;;;9.30;100.00
36242;BME280;22283;42.748;12.732;2022-11-03T00:06:45;98800.38;;;9.29;100.00
36242;BME280;22283;42.748;12.732;2022-11-03T00:11:47;98787.78;;;9.18;100.00
36242;BME280;22283;42.748;12.732;2022-11-03T00:16:50;98785.75;;;9.07;100.00
36242;BME280;22283;42.748;12.732;2022-11-03T00:21:50;98782.63;;;9.01;100.00
36242;BME280;22283;42.748;12.732;2022-11-03T00:26:52;98773.16;;;8.97;100.00
36242;BME280;22283;42.748;12.732;2022-11-03T00:31:52;98789.25;;;9.08;100.00
36242;BME280;22283;42.748;12.732;2022-11-03T00:36:53;98789.78;;;8.99;100.00
36242;BME280;22283;42.748;12.732;2022-11-03T00:41:54;98779.63;;;9.07;100.00
36242;BME280;22283;42.748;12.732;2022-11-03T00:46:55;98795.66;;;9.04;100.00
36242;BME280;22283;42.748;12.732;2022-11-03T00:51:55;98788.91;;;8.98;100.00
36242;BME280;22283;42.748;12.732;2022-11-03T00:56:56;98790.13;;;8.93;100.00
36242;BME280;22283;42.748;12.732;2022-11-03T01:01:56;98778.97;;;8.88;100.00
36242;BME280;22283;42.748;12.732;2022-11-03T01:06:58;98778.13;;;9.03;100.00
36242;BME280;22283;42.748;12.732;2022-11-03T01:12:11;98774.25;;;9.08;100.00
36242;BME280;22283;42.748;12.732;2022-11-03T01:22:16;98769.53;;;9.29;100.00
36242;BME280;22283;42.748;12.732;2022-11-03T01:27:19;98766.13;;;9.43;100.00
36242;BME280;22283;42.748;12.732;2022-11-03T01:32:19;98761.50;;;9.47;100.00
36242;BME280;22283;42.748;12.732;2022-11-03T01:37:20;98765.22;;;9.58;100.00
36242;BME280;22283;42.748;12.732;2022-11-03T01:42:21;98764.75;;;9.66;100.00
36242;BME280;22283;42.748;12.732;2022-11-03T01:47:27;98762.28;;;9.63;100.00
36242;BME280;22283;42.748;12.732;2022-11-03T01:57:46;98746.06;;;9.69;100.00
36242;BME280;22283;42.748;12.732;2022-11-03T02:02:49;98739.88;;;9.84;100.00
36242;BME280;22283;42.748;12.732;2022-11-03T02:13:02;98735.34;;;10.01;100.00
36242;BME280;22283;42.748;12.732;2022-11-03T02:18:07;98728.00;;;10.06;100.00
36242;BME280;22283;42.748;12.732;2022-11-03T02:28:48;98734.81;;;10.39;100.00
36242;BME280;22283;42.748;12.732;2022-11-03T02:34:22;98721.41;;;10.27;100.00
36242;BME280;22283;42.748;12.732;2022-11-03T02:39:45;98728.94;;;10.19;100.00
36242;BME280;22283;42.748;12.732;2022-11-03T02:44:48;98716.59;;;10.34;100.00
36242;BME280;22283;42.748;12.732;2022-11-03T02:49:52;98711.16;;;10.21;100.00
36242;BME280;22283;42.748;12.732;2022-11-03T02:54:54;98723.44;;;10.08;100.00
36242;BME280;22283;42.748;12.732;2022-11-03T03:00:03;98722.97;;;9.87;100.00
36242;BME280;22283;42.748;12.732;2022-11-03T03:05:07;98734.56;;;9.84;100.00
36242;BME280;22283;42.748;12.732;2022-11-03T03:10:22;98735.63;;;9.82;100.00
36242;BME280;22283;42.748;12.732;2022-11-03T03:15:39;98732.97;;;9.68;100.00
36242;BME280;22283;42.748;12.732;2022-11-03T03:20:50;98731.13;;;9.54;100.00
36242;BME280;22283;42.748;12.732;2022-11-03T03:26:05;98729.22;;;9.42;100.00
36242;BME280;22283;42.748;12.732;2022-11-03T03:31:08;98720.13;;;9.31;100.00
36242;BME280;22283;42.748;12.732;2022-11-03T03:36:14;98726.13;;;9.19;100.00
36242;BME280;22283;42.748;12.732;2022-11-03T03:41:17;98722.06;;;8.98;100.00
36242;BME280;22283;42.748;12.732;2022-11-03T03:46:22;98712.38;;;8.82;100.00
36242;BME280;22283;42.748;12.732;2022-11-03T03:51:25;98718.03;;;8.76;100.00
36242;BME280;22283;42.748;12.732;2022-11-03T03:57:16;98699.31;;;8.65;100.00
36242;BME280;22283;42.748;12.732;2022-11-03T04:01:57;98702.22;;;8.60;100.00
36242;BME280;22283;42.748;12.732;2022-11-03T04:06:58;98712.84;;;8.59;100.00
36242;BME280;22283;42.748;12.732;2022-11-03T04:12:17;98710.72;;;8.50;100.00
36242;BME280;22283;42.748;12.732;2022-11-03T04:17:45;98714.81;;;8.40;100.00
36242;BME280;22283;42.748;12.732;2022-11-03T04:23:05;98707.28;;;8.16;100.00
36242;BME280;22283;42.748;12.732;2022-11-03T04:28:13;98715.41;;;8.11;100.00
36242;BME280;22283;42.748;12.732;2022-11-03T04:33:17;98719.66;;;8.14;100.00
36242;BME280;22283;42.748;12.732;2022-11-03T04:38:22;98708.38;;;8.12;100.00
36242;BME280;22283;42.748;12.732;2022-11-03T04:43:32;98710.59;;;8.20;100.00
36242;BME280;22283;42.748;12.732;2022-11-03T04:48:33;98697.22;;;8.23;100.00
36242;BME280;22283;42.748;12.732;2022-11-03T04:53:34;98689.81;;;8.13;100.00
36242;BME280;22283;42.748;12.732;2022-11-03T04:58:36;98705.91;;;8.25;100.00
36242;BME280;22283;42.748;12.732;2022-11-03T05:03:38;98712.63;;;8.30;100.00
36242;BME280;22283;42.748;12.732;2022-11-03T05:08:40;98716.97;;;8.31;100.00
36242;BME280;22283;42.748;12.732;2022-11-03T05:13:42;98709.56;;;8.22;100.00
36242;BME280;22283;42.748;12.732;2022-11-03T05:18:43;98716.03;;;8.17;100.00
36242;BME280;22283;42.748;12.732;2022-11-03T05:23:49;98713.28;;;8.18;100.00
36242;BME280;22283;42.748;12.732;2022-11-03T05:28:54;98708.97;;;8.17;100.00
36242;BME280;22283;42.748;12.732;2022-11-03T05:34:00;98711.50;;;8.19;100.00
36242;BME280;22283;42.748;12.732;2022-11-03T05:44:33;98709.72;;;8.19;100.00
36242;BME280;22283;42.748;12.732;2022-11-03T05:49:36;98712.03;;;8.25;100.00
36242;BME280;22283;42.748;12.732;2022-11-03T05:54:37;98717.91;;;8.30;100.00
36242;BME280;22283;42.748;12.732;2022-11-03T05:59:37;98731.84;;;8.17;100.00
36242;BME280;22283;42.748;12.732;2022-11-03T06:04:40;98733.94;;;8.10;100.00
36242;BME280;22283;42.748;12.732;2022-11-03T06:09:41;98735.28;;;8.01;100.00
36242;BME280;22283;42.748;12.732;2022-11-03T06:14:42;98740.19;;;7.92;100.00
36242;BME280;22283;42.748;12.732;2022-11-03T06:19:46;98746.81;;;7.99;100.00
36242;BME280;22283;42.748;12.732;2022-11-03T06:24:49;98755.47;;;8.18;100.00
36242;BME280;22283;42.748;12.732;2022-11-03T06:29:57;98747.47;;;8.53;100.00
36242;BME280;22283;42.748;12.732;2022-11-03T06:34:58;98747.31;;;8.88;100.00
36242;BME280;22283;42.748;12.732;2022-11-03T06:45:20;98771.53;;;9.56;100.00
36242;BME280;22283;42.748;12.732;2022-11-03T06:50:27;98780.25;;;9.72;100.00
36242;BME280;22283;42.748;12.732;2022-11-03T06:55:30;98779.44;;;9.86;100.00
36242;BME280;22283;42.748;12.732;2022-11-03T07:00:37;98788.41;;;9.98;100.00
36242;BME280;22283;42.748;12.732;2022-11-03T07:05:38;98778.47;;;10.01;100.00
36242;BME280;22283;42.748;12.732;2022-11-03T07:10:39;98774.09;;;10.30;100.00
36242;BME280;22283;42.748;12.732;2022-11-03T07:15:41;98774.28;;;10.56;100.00
36242;BME280;22283;42.748;12.732;2022-11-03T07:20:43;98763.84;;;10.81;100.00
36242;BME280;22283;42.748;12.732;2022-11-03T07:25:48;98758.84;;;11.04;100.00
36242;BME280;22283;42.748;12.732;2022-11-03T07:30:49;98769.75;;;11.26;98.22
36242;BME280;22283;42.748;12.732;2022-11-03T07:35:50;98767.44;;;11.35;97.62
36242;BME280;22283;42.748;12.732;2022-11-03T07:40:52;98766.88;;;11.56;96.63
36242;BME280;22283;42.748;12.732;2022-11-03T07:45:54;98752.34;;;11.75;98.57
36242;BME280;22283;42.748;12.732;2022-11-03T07:50:58;98744.69;;;11.85;98.82
36242;BME280;22283;42.748;12.732;2022-11-03T07:56:00;98746.69;;;12.06;97.05
36242;BME280;22283;42.748;12.732;2022-11-03T08:01:16;98746.59;;;12.08;94.93
36242;BME280;22283;42.748;12.732;2022-11-03T08:06:19;98747.84;;;12.28;94.21
36242;BME280;22283;42.748;12.732;2022-11-03T08:11:20;98748.34;;;12.46;93.23
36242;BME280;22283;42.748;12.732;2022-11-03T08:16:22;98738.63;;;12.70;91.64
36242;BME280;22283;42.748;12.732;2022-11-03T08:21:23;98744.81;;;12.95;90.08
36242;BME280;22283;42.748;12.732;2022-11-03T08:26:24;98731.50;;;13.08;88.65
36242;BME280;22283;42.748;12.732;2022-11-03T08:31:24;98729.81;;;13.31;85.98
36242;BME280;22283;42.748;12.732;2022-11-03T08:36:25;98734.47;;;13.51;85.61
36242;BME280;22283;42.748;12.732;2022-11-03T08:41:26;98730.66;;;13.77;83.51
36242;BME280;22283;42.748;12.732;2022-11-03T08:46:26;98722.75;;;14.11;81.82
36242;BME280;22283;42.748;12.732;2022-11-03T08:51:27;98725.19;;;14.25;80.91
36242;BME280;22283;42.748;12.732;2022-11-03T08:56:28;98707.88;;;14.31;80.20
36242;BME280;22283;42.748;12.732;2022-11-03T09:01:29;98688.88;;;14.36;79.91
36242;BME280;22283;42.748;12.732;2022-11-03T09:06:30;98689.59;;;14.49;80.07
36242;BME280;22283;42.748;12.732;2022-11-03T09:11:30;98676.50;;;14.68;78.86
36242;BME280;22283;42.748;12.732;2022-11-03T09:16:31;98665.09;;;14.89;77.30
36242;BME280;22283;42.748;12.732;2022-11-03T09:21:32;98675.22;;;14.95;78.35
36242;BME280;22283;42.748;12.732;2022-11-03T09:26:32;98661.09;;;15.15;76.60
36242;BME280;22283;42.748;12.732;2022-11-03T09:31:33;98660.44;;;15.44;74.81
36242;BME280;22283;42.748;12.732;2022-11-03T09:36:33;98655.84;;;15.67;73.36
36242;BME280;22283;42.748;12.732;2022-11-03T09:41:34;98659.88;;;15.82;73.48
36242;BME280;22283;42.748;12.732;2022-11-03T09:46:35;98669.19;;;15.88;72.77
36242;BME280;22283;42.748;12.732;2022-11-03T09:51:36;98650.56;;;15.97;72.38
36242;BME280;22283;42.748;12.732;2022-11-03T09:56:37;98659.75;;;16.14;72.92
36242;BME280;22283;42.748;12.732;2022-11-03T10:01:37;98658.09;;;16.23;70.83
36242;BME280;22283;42.748;12.732;2022-11-03T10:06:38;98647.72;;;16.30;70.97
36242;BME280;22283;42.748;12.732;2022-11-03T10:11:39;98649.03;;;16.45;70.38
36242;BME280;22283;42.748;12.732;2022-11-03T10:16:40;98634.81;;;16.75;69.25
36242;BME280;22283;42.748;12.732;2022-11-03T10:21:42;98624.25;;;16.93;67.95
36242;BME280;22283;42.748;12.732;2022-11-03T10:26:46;98623.41;;;17.02;67.58
36242;BME280;22283;42.748;12.732;2022-11-03T10:31:49;98617.50;;;17.08;66.75
36242;BME280;22283;42.748;12.732;2022-11-03T10:37:27;98613.25;;;17.35;63.80
36242;BME280;22283;42.748;12.732;2022-11-03T10:42:29;98611.84;;;17.40;64.29
36242;BME280;22283;42.748;12.732;2022-11-03T10:47:32;98603.97;;;17.39;65.04
36242;BME280;22283;42.748;12.732;2022-11-03T10:52:33;98596.91;;;17.48;64.67
36242;BME280;22283;42.748;12.732;2022-11-03T10:57:34;98589.53;;;17.59;65.06
36242;BME280;22283;42.748;12.732;2022-11-03T11:02:34;98572.66;;;17.49;65.33
36242;BME280;22283;42.748;12.732;2022-11-03T11:07:38;98576.06;;;17.41;66.01
36242;BME280;22283;42.748;12.732;2022-11-03T11:28:28;98560.66;;;17.16;66.84
36242;BME280;22283;42.748;12.732;2022-11-03T11:33:30;98548.84;;;17.18;67.18
36242;BME280;22283;42.748;12.732;2022-11-03T11:38:52;98553.31;;;17.28;66.81
36242;BME280;22283;42.748;12.732;2022-11-03T11:49:34;98534.75;;;17.63;67.17
36242;BME280;22283;42.748;12.732;2022-11-03T11:54:34;98522.16;;;17.74;66.36
36242;BME280;22283;42.748;12.732;2022-11-03T11:59:35;98519.03;;;17.88;65.12
36242;BME280;22283;42.748;12.732;2022-11-03T12:04:36;98505.09;;;18.12;65.70
36242;BME280;22283;42.748;12.732;2022-11-03T12:09:36;98497.31;;;18.18;64.66
36242;BME280;22283;42.748;12.732;2022-11-03T12:14:39;98493.03;;;18.43;64.75
36242;BME280;22283;42.748;12.732;2022-11-03T12:24:49;98475.22;;;19.48;66.47
36242;BME280;22283;42.748;12.732;2022-11-03T12:29:55;98467.00;;;19.84;61.26
36242;BME280;22283;42.748;12.732;2022-11-03T12:34:56;98454.63;;;19.99;61.58
36242;BME280;22283;42.748;12.732;2022-11-03T12:39:56;98447.28;;;20.18;61.37
36242;BME280;22283;42.748;12.732;2022-11-03T12:44:57;98447.28;;;20.18;62.15
36242;BME280;22283;42.748;12.732;2022-11-03T12:49:57;98429.81;;;20.22;61.91
36242;BME280;22283;42.748;12.732;2022-11-03T12:54:58;98424.13;;;20.17;62.06
36242;BME280;22283;42.748;12.732;2022-11-03T12:59:59;98413.00;;;20.03;62.89
36242;BME280;22283;42.748;12.732;2022-11-03T13:04:59;98403.78;;;19.98;63.30
36242;BME280;22283;42.748;12.732;2022-11-03T13:10:00;98380.44;;;19.98;62.50
36242;BME280;22283;42.748;12.732;2022-11-03T13:15:04;98378.75;;;19.89;63.85
36242;BME280;22283;42.748;12.732;2022-11-03T13:20:06;98380.88;;;19.69;64.80
36242;BME280;22283;42.748;12.732;2022-11-03T13:25:07;98384.41;;;19.70;66.01
36242;BME280;22283;42.748;12.732;2022-11-03T13:30:08;98374.69;;;19.69;65.79
36242;BME280;22283;42.748;12.732;2022-11-03T13:35:09;98382.75;;;19.77;65.50
36242;BME280;22283;42.748;12.732;2022-11-03T13:40:13;98381.47;;;19.55;67.43
36242;BME280;22283;42.748;12.732;2022-11-03T13:45:14;98385.38;;;19.60;67.51
36242;BME280;22283;42.748;12.732;2022-11-03T13:50:15;98378.28;;;19.59;67.05
36242;BME280;22283;42.748;12.732;2022-11-03T13:55:16;98377.47;;;19.59;67.78
36242;BME280;22283;42.748;12.732;2022-11-03T14:00:17;98376.56;;;19.42;68.05
36242;BME280;22283;42.748;12.732;2022-11-03T14:05:18;98375.47;;;19.19;69.33
36242;BME280;22283;42.748;12.732;2022-11-03T14:10:18;98383.44;;;19.02;71.22
36242;BME280;22283;42.748;12.732;2022-11-03T14:15:19;98376.53;;;19.00;71.80
36242;BME280;22283;42.748;12.732;2022-11-03T14:20:20;98360.22;;;19.19;71.30
36242;BME280;22283;42.748;12.732;2022-11-03T14:25:20;98351.69;;;19.24;70.61
36242;BME280;22283;42.748;12.732;2022-11-03T14:30:21;98351.16;;;19.20;71.72
36242;BME280;22283;42.748;12.732;2022-11-03T14:35:22;98337.84;;;19.02;71.45
36242;BME280;22283;42.748;12.732;2022-11-03T14:40:23;98344.25;;;18.75;72.06
36242;BME280;22283;42.748;12.732;2022-11-03T14:45:42;98335.50;;;18.47;72.96
36242;BME280;22283;42.748;12.732;2022-11-03T14:50:42;98334.47;;;18.22;74.12
36242;BME280;22283;42.748;12.732;2022-11-03T14:55:43;98328.06;;;17.97;76.18
36242;BME280;22283;42.748;12.732;2022-11-03T15:00:44;98315.91;;;17.85;76.80
36242;BME280;22283;42.748;12.732;2022-11-03T15:05:45;98314.66;;;17.61;78.18
36242;BME280;22283;42.748;12.732;2022-11-03T15:10:46;98316.66;;;17.59;79.40
36242;BME280;22283;42.748;12.732;2022-11-03T15:15:46;98292.66;;;17.67;79.19
36242;BME280;22283;42.748;12.732;2022-11-03T15:20:47;98298.66;;;17.79;79.05
36242;BME280;22283;42.748;12.732;2022-11-03T15:25:48;98284.63;;;17.67;79.01
36242;BME280;22283;42.748;12.732;2022-11-03T15:30:48;98284.84;;;17.56;79.68
36242;BME280;22283;42.748;12.732;2022-11-03T15:35:49;98276.50;;;17.41;81.34
36242;BME280;22283;42.748;12.732;2022-11-03T15:40:50;98277.19;;;17.26;81.73
36242;BME280;22283;42.748;12.732;2022-11-03T15:45:50;98279.88;;;16.98;83.85
36242;BME280;22283;42.748;12.732;2022-11-03T15:50:51;98273.81;;;16.68;85.97
36242;BME280;22283;42.748;12.732;2022-11-03T15:55:51;98272.03;;;16.50;87.10
36242;BME280;22283;42.748;12.732;2022-11-03T16:00:52;98276.22;;;16.25;88.59
36242;BME280;22283;42.748;12.732;2022-11-03T16:05:53;98268.66;;;16.01;90.29
36242;BME280;22283;42.748;12.732;2022-11-03T16:10:53;98264.19;;;15.82;91.79
36242;BME280;22283;42.748;12.732;2022-11-03T16:15:54;98262.81;;;15.68;92.43
36242;BME280;22283;42.748;12.732;2022-11-03T16:20:55;98258.84;;;15.62;93.17
36242;BME280;22283;42.748;12.732;2022-11-03T16:25:55;98256.56;;;15.48;94.23
36242;BME280;22283;42.748;12.732;2022-11-03T16:30:56;98251.81;;;15.42;94.70
36242;BME280;22283;42.748;12.732;2022-11-03T16:35:57;98250.16;;;15.41;95.18
36242;BME280;22283;42.748;12.732;2022-11-03T16:40:57;98268.09;;;15.39;95.41
36242;BME280;22283;42.748;12.732;2022-11-03T16:45:58;98247.03;;;15.36;95.45
36242;BME280;22283;42.748;12.732;2022-11-03T16:50:58;98255.47;;;15.41;95.36
36242;BME280;22283;42.748;12.732;2022-11-03T16:55:59;98260.34;;;15.36;95.97
36242;BME280;22283;42.748;12.732;2022-11-03T17:01:00;98260.22;;;15.28;96.65
36242;BME280;22283;42.748;12.732;2022-11-03T17:06:01;98247.31;;;15.23;97.07
36242;BME280;22283;42.748;12.732;2022-11-03T17:11:01;98241.00;;;15.24;97.14
36242;BME280;22283;42.748;12.732;2022-11-03T17:16:02;98240.28;;;15.12;96.86
36242;BME280;22283;42.748;12.732;2022-11-03T17:21:03;98234.38;;;14.99;98.09
36242;BME280;22283;42.748;12.732;2022-11-03T17:26:04;98235.47;;;14.87;99.57
36242;BME280;22283;42.748;12.732;2022-11-03T17:31:04;98213.84;;;14.70;100.00
36242;BME280;22283;42.748;12.732;2022-11-03T17:36:05;98213.16;;;14.47;100.00
36242;BME280;22283;42.748;12.732;2022-11-03T17:41:08;98204.09;;;14.19;100.00
36242;BME280;22283;42.748;12.732;2022-11-03T17:46:09;98197.44;;;14.04;100.00
36242;BME280;22283;42.748;12.732;2022-11-03T17:51:10;98191.75;;;13.88;100.00
36242;BME280;22283;42.748;12.732;2022-11-03T17:56:15;98189.81;;;13.90;100.00
36242;BME280;22283;42.748;12.732;2022-11-03T18:01:20;98188.25;;;13.87;100.00
36242;BME280;22283;42.748;12.732;2022-11-03T18:06:22;98175.66;;;13.89;100.00
36242;BME280;22283;42.748;12.732;2022-11-03T18:11:26;98173.97;;;13.88;100.00
36242;BME280;22283;42.748;12.732;2022-11-03T18:16:46;98174.13;;;13.87;100.00
36242;BME280;22283;42.748;12.732;2022-11-03T18:21:47;98172.81;;;13.81;100.00
36242;BME280;22283;42.748;12.732;2022-11-03T18:26:48;98178.00;;;13.62;100.00
36242;BME280;22283;42.748;12.732;2022-11-03T18:31:48;98169.13;;;13.51;100.00
36242;BME280;22283;42.748;12.732;2022-11-03T18:36:49;98158.75;;;13.48;100.00
36242;BME280;22283;42.748;12.732;2022-11-03T18:41:52;98157.47;;;13.43;100.00
36242;BME280;22283;42.748;12.732;2022-11-03T18:46:53;98152.91;;;13.34;100.00
36242;BME280;22283;42.748;12.732;2022-11-03T18:51:58;98142.81;;;13.27;100.00
36242;BME280;22283;42.748;12.732;2022-11-03T18:57:00;98138.78;;;13.33;100.00
36242;BME280;22283;42.748;12.732;2022-11-03T19:02:01;98137.94;;;13.33;100.00
36242;BME280;22283;42.748;12.732;2022-11-03T19:07:02;98131.22;;;13.28;100.00
36242;BME280;22283;42.748;12.732;2022-11-03T19:12:04;98119.59;;;13.29;100.00
36242;BME280;22283;42.748;12.732;2022-11-03T19:17:12;98123.09;;;13.30;100.00
36242;BME280;22283;42.748;12.732;2022-11-03T19:22:18;98105.50;;;13.18;100.00
36242;BME280;22283;42.748;12.732;2022-11-03T19:27:22;98111.22;;;13.13;100.00
36242;BME280;22283;42.748;12.732;2022-11-03T19:32:27;98105.03;;;13.24;100.00
36242;BME280;22283;42.748;12.732;2022-11-03T19:37:30;98101.63;;;13.22;100.00
36242;BME280;22283;42.748;12.732;2022-11-03T19:42:31;98103.69;;;13.18;100.00
36242;BME280;22283;42.748;12.732;2022-11-03T19:47:39;98073.63;;;13.18;100.00
36242;BME280;22283;42.748;12.732;2022-11-03T19:52:42;98063.72;;;13.41;100.00
36242;BME280;22283;42.748;12.732;2022-11-03T19:57:43;98066.31;;;13.52;100.00
36242;BME280;22283;42.748;12.732;2022-11-03T20:02:44;98053.09;;;13.41;100.00
36242;BME280;22283;42.748;12.732;2022-11-03T20:07:44;98043.28;;;13.32;100.00
36242;BME280;22283;42.748;12.732;2022-11-03T20:12:45;98031.00;;;13.40;100.00
36242;BME280;22283;42.748;12.732;2022-11-03T20:17:47;98048.94;;;13.48;100.00
36242;BME280;22283;42.748;12.732;2022-11-03T20:22:51;98032.00;;;13.39;100.00
36242;BME280;22283;42.748;12.732;2022-11-03T20:27:55;98031.25;;;13.58;100.00
36242;BME280;22283;42.748;12.732;2022-11-03T20:32:56;98023.03;;;13.71;100.00
36242;BME280;22283;42.748;12.732;2022-11-03T20:37:57;98008.41;;;13.86;100.00
36242;BME280;22283;42.748;12.732;2022-11-03T20:42:59;97984.88;;;14.01;100.00
36242;BME280;22283;42.748;12.732;2022-11-03T20:48:00;97976.38;;;14.07;100.00
36242;BME280;22283;42.748;12.732;2022-11-03T20:53:04;97977.09;;;14.19;100.00
36242;BME280;22283;42.748;12.732;2022-11-03T20:58:11;97967.44;;;14.37;100.00
36242;BME280;22283;42.748;12.732;2022-11-03T21:03:25;97963.94;;;14.56;100.00
36242;BME280;22283;42.748;12.732;2022-11-03T21:08:26;97951.59;;;14.74;100.00
36242;BME280;22283;42.748;12.732;2022-11-03T21:13:27;97946.13;;;14.86;99.81
36242;BME280;22283;42.748;12.732;2022-11-03T21:18:28;97928.00;;;14.99;96.97
36242;BME280;22283;42.748;12.732;2022-11-03T21:23:47;97922.38;;;15.02;96.00
36242;BME280;22283;42.748;12.732;2022-11-03T21:28:47;97903.63;;;14.94;95.70
36242;BME280;22283;42.748;12.732;2022-11-03T21:33:48;97905.41;;;15.03;94.86
36242;BME280;22283;42.748;12.732;2022-11-03T21:38:49;97878.19;;;15.09;93.20
36242;BME280;22283;42.748;12.732;2022-11-03T21:43:49;97870.19;;;15.09;92.36
36242;BME280;22283;42.748;12.732;2022-11-03T21:49:09;97868.38;;;15.10;91.96
36242;BME280;22283;42.748;12.732;2022-11-03T21:54:28;97860.91;;;15.13;91.59
36242;BME280;22283;42.748;12.732;2022-11-03T21:59:30;97835.56;;;15.09;90.75
36242;BME280;22283;42.748;12.732;2022-11-03T22:04:31;97820.94;;;15.13;90.24
36242;BME280;22283;42.748;12.732;2022-11-03T22:09:32;97806.09;;;15.11;90.03
36242;BME280;22283;42.748;12.732;2022-11-03T22:14:33;97814.25;;;15.09;89.35
36242;BME280;22283;42.748;12.732;2022-11-03T22:19:57;97795.22;;;15.22;87.45
36242;BME280;22283;42.748;12.732;2022-11-03T22:25:30;97774.53;;;15.34;86.02
36242;BME280;22283;42.748;12.732;2022-11-03T22:30:49;97763.88;;;15.34;84.25
36242;BME280;22283;42.748;12.732;2022-11-03T22:36:08;97766.88;;;15.48;82.81
36242;BME280;22283;42.748;12.732;2022-11-03T22:41:24;97752.00;;;15.46;81.96
36242;BME280;22283;42.748;12.732;2022-11-03T22:46:43;97740.94;;;15.59;81.15
36242;BME280;22283;42.748;12.732;2022-11-03T22:51:44;97733.56;;;15.53;81.11
36242;BME280;22283;42.748;12.732;2022-11-03T22:56:44;97728.53;;;15.67;79.29
36242;BME280;22283;42.748;12.732;2022-11-03T23:01:45;97718.47;;;15.61;79.85
36242;BME280;22283;42.748;12.732;2022-11-03T23:06:46;97713.41;;;15.68;78.58
36242;BME280;22283;42.748;12.732;2022-11-03T23:11:47;97698.91;;;15.70;76.96
36242;BME280;22283;42.748;12.732;2022-11-03T23:16:48;97672.94;;;15.72;76.49
36242;BME280;22283;42.748;12.732;2022-11-03T23:21:50;97668.22;;;15.66;76.17
36242;BME280;22283;42.748;12.732;2022-11-03T23:26:51;97666.59;;;15.73;75.15
36242;BME280;22283;42.748;12.732;2022-11-03T23:31:52;97648.16;;;15.80;73.87
36242;BME280;22283;42.748;12.732;2022-11-03T23:36:53;97632.81;;;15.82;73.78
36242;BME280;22283;42.748;12.732;2022-11-03T23:41:54;97621.66;;;15.87;73.09
36242;BME280;22283;42.748;12.732;2022-11-03T23:46:54;97622.97;;;15.83;72.93
36242;BME280;22283;42.748;12.732;2022-11-03T23:52:14;97601.91;;;15.71;73.40
36242;BME280;22283;42.748;12.732;2022-11-03T23:57:14;97591.44;;;15.78;72.54
